Latest Weather Observations for Hay Airport

IDN60801

Issued at 6:05 pm EST Thursday 2 October 2014 (issued every 30 minutes, with the page automatically refreshed every 10 minutes)

About weather observations | Map of weather stations | Latest weather observations for NSW | Other Formats
Station Details ID: 075019 Name: HAY AIRPORT AWS Lat: -34.54 Lon: 144.83 Height: 92.0 m
Data from the previous 72 hours. | See also: Recent months for locations in New South Wales
Date/Time
EST
Temp
°C
App
Temp
°C
Dew
Point
Rel
Hum
%
Delta-T
°C
Wind Press
QNH
hPa
Press
MSL
hPa
Rain
since 9 am
mm
Dir
 
Spd
km/h
Gust
km/h
Spd
kts
Gust
kts
02/06:00pm 19.5 14.4 2.8 33 7.8 SW 19 24 10 13 1022.0 1021.9 0.0
02/05:30pm 20.4 15.1 3.2 32 8.1 SW 20 28 11 15 1021.9 1021.8 0.0
02/05:00pm 21.4 16.0 2.6 29 8.8 SW 20 30 11 16 1021.9 1021.8 0.0
02/04:30pm 21.0 14.8 2.3 29 8.8 SW 24 30 13 16 1021.9 1021.8 0.0
02/04:00pm 21.7 16.2 1.9 27 9.2 SW 20 30 11 16 1022.1 1022.0 0.0
02/03:30pm 21.7 15.7 3.4 30 8.8 SW 24 32 13 17 1022.1 1022.0 0.0
02/03:00pm 21.5 15.5 3.2 30 8.7 SW 24 33 13 18 1022.3 1022.2 0.0
02/02:30pm 21.1 14.6 2.9 30 8.6 SW 26 35 14 19 1022.8 1022.6 0.0
02/02:00pm 19.4 14.2 2.7 33 7.7 SW 19 26 10 14 1023.2 1023.0 0.0
02/01:30pm 19.6 15.0 3.7 35 7.6 WNW 17 20 9 11 1023.7 1023.5 0.0
02/01:00pm 19.5 14.5 3.6 35 7.5 WSW 19 28 10 15 1024.1 1023.9 0.0
02/12:30pm 19.0 15.2 4.0 37 7.2 SSW 13 20 7 11 1024.5 1024.3 0.0
02/12:00pm 18.0 13.1 4.2 40 6.5 SW 19 30 10 16 1024.9 1024.7 0.0
02/11:00am 17.1 12.3 4.8 44 5.8 SW 19 30 10 16 1025.7 1025.5 0.0
02/10:30am 16.8 11.8 4.5 44 5.8 SW 20 32 11 17 1025.7 1025.5 0.0
02/10:00am 16.0 11.0 4.4 46 5.4 SSW 20 32 11 17 1025.9 1025.8 0.0
02/09:30am 15.0 10.4 3.8 47 5.2 S 17 24 9 13 1025.9 1025.8 0.0
02/09:00am 15.2 11.1 4.3 48 5.0 S 15 24 8 13 1025.9 1025.8 0.0
02/08:30am 13.8 9.2 3.6 50 4.6 SSE 17 20 9 11 1026.1 1026.0 0.0
02/08:00am 12.7 8.0 3.4 53 4.1 SSE 17 20 9 11 1026.0 1025.9 0.0
02/07:30am 10.8 6.6 3.6 61 3.2 S 15 19 8 10 1025.8 1025.6 0.0
02/07:00am 8.0 4.8 2.9 70 2.1 S 9 13 5 7 1025.7 1025.5 0.0
02/06:30am 5.2 2.1 1.3 76 1.5 SSW 7 9 4 5 1025.5 1025.3 0.0
02/06:00am 5.1 1.2 1.4 77 1.5 SSW 11 13 6 7 1025.3 1025.1 0.0
02/05:30am 4.6 2.7 0.6 75 1.5 CALM 0 0 0 0 1025.0 1024.8 0.0
02/05:00am 4.4 1.1 -0.2 72 1.7 SW 7 9 4 5 1024.8 1024.6 0.0
02/04:30am 4.5 1.1 -0.3 71 1.8 SW 7 9 4 5 1024.7 1024.5 0.0
02/04:00am 5.1 1.0 -0.1 69 2.0 SW 11 11 6 6 1024.7 1024.5 0.0
02/03:30am 5.6 1.9 0.0 67 2.2 SW 9 11 5 6 1024.6 1024.4 0.0
02/03:00am 5.8 2.7 0.2 67 2.2 WSW 6 7 3 4 1024.9 1024.7 0.0
02/02:30am 5.3 1.9 -0.7 65 2.3 SSW 7 7 4 4 1024.9 1024.7 0.0
02/02:00am 6.2 2.5 -0.3 63 2.5 S 9 11 5 6 1025.1 1024.9 0.0
02/01:30am 6.8 3.1 0.0 62 2.7 S 9 13 5 7 1025.2 1025.0 0.0
02/01:00am 7.1 2.6 -0.1 60 2.8 S 13 15 7 8 1025.2 1025.0 0.0
02/12:30am 7.4 3.3 -0.3 58 3.0 S 11 13 6 7 1025.3 1025.1 0.0
02/12:00am 8.4 4.0 0.1 56 3.3 SSW 13 15 7 8 1025.4 1025.2 0.0
 
Date/Time
EST
Temp
°C
App
Temp
°C
Dew
Point
Rel
Hum
%
Delta-T
°C
Wind Press
QNH
hPa
Press
MSL
hPa
Rain
since 9 am
mm
Dir
 
Spd
km/h
Gust
km/h
Spd
kts
Gust
kts
01/11:30pm 8.0 4.4 0.7 60 2.9 SW 9 13 5 7 1025.4 1025.2 0.0
01/11:00pm 8.0 4.2 -0.5 55 3.3 WSW 9 11 5 6 1025.3 1025.1 0.0
01/10:30pm 8.3 4.9 -0.7 53 3.5 W 7 7 4 4 1025.3 1025.1 0.0
01/10:00pm 8.6 5.1 -1.5 49 3.8 W 7 7 4 4 1025.3 1025.1 0.0
01/09:30pm 9.2 5.8 -1.8 46 4.2 SW 6 7 3 4 1025.2 1025.0 0.0
01/09:00pm 10.9 7.5 -0.9 44 4.7 S 7 9 4 5 1025.1 1024.9 0.0
01/08:30pm 11.7 7.9 -0.8 42 5.0 S 9 9 5 5 1025.0 1024.8 0.0
01/08:00pm 12.1 7.8 -1.4 39 5.4 S 11 13 6 7 1025.0 1024.8 0.0
01/07:30pm 12.9 8.6 -1.4 37 5.7 S 11 15 6 8 1024.6 1024.4 0.0
01/07:00pm 13.7 9.4 -1.9 34 6.2 S 11 13 6 7 1024.3 1024.1 0.0
01/06:30pm 15.1 9.6 -2.3 30 7.0 SSW 17 20 9 11 1023.9 1023.7 0.0
01/06:00pm 16.5 10.4 -2.5 27 7.7 SSW 20 26 11 14 1023.9 1023.7 0.0
01/05:30pm 17.3 10.8 -2.4 26 8.1 SSW 22 32 12 17 1023.8 1023.6 0.0
01/05:00pm 17.7 11.2 -2.6 25 8.3 SW 22 30 12 16 1023.5 1023.3 0.0
01/04:30pm 18.2 10.7 -1.6 26 8.4 SSW 28 41 15 22 1023.7 1023.5 0.0
01/04:00pm 18.6 11.8 -1.8 25 8.6 WSW 24 33 13 18 1023.6 1023.4 0.0
01/03:30pm 18.6 11.4 -1.8 25 8.6 SSW 26 32 14 17 1023.4 1023.2 0.0
01/03:00pm 18.7 13.4 -0.7 27 8.3 SW 17 24 9 13 1023.5 1023.3 0.0
01/02:30pm 18.3 11.9 -2.0 25 8.5 S 22 30 12 16 1023.7 1023.5 0.0
01/02:00pm 17.7 10.7 -3.1 24 8.4 S 24 28 13 15 1024.0 1023.8 0.0
01/01:30pm 17.1 10.7 -1.5 28 7.8 SSW 22 35 12 19 1024.3 1024.1 0.0
01/01:00pm 16.6 10.2 -1.5 29 7.5 SW 22 46 12 25 1024.7 1024.5 0.0
01/12:30pm 16.7 10.4 -0.9 30 7.4 SSW 22 32 12 17 1024.9 1024.7 0.0
01/12:00pm 16.6 10.3 -1.0 30 7.4 S 22 30 12 16 1025.1 1024.9 0.0
01/11:30am 15.5 8.9 -0.7 33 6.8 S 24 35 13 19 1025.3 1025.1 0.0
01/11:00am 15.2 8.3 -0.1 35 6.4 SSW 26 37 14 20 1025.4 1025.2 0.0
01/10:30am 14.8 8.2 -0.5 35 6.4 S 24 35 13 19 1025.5 1025.3 0.0
01/10:00am 13.8 7.3 0.1 39 5.7 S 24 37 13 20 1025.6 1025.4 0.0
01/09:30am 13.3 6.1 1.0 43 5.2 SSW 28 37 15 20 1025.5 1025.5 0.0
01/09:00am 12.6 6.3 1.6 47 4.7 SSW 24 30 13 16 1025.3 1025.2 0.0
01/08:30am 11.8 4.7 1.4 49 4.4 SSW 28 37 15 20 1025.0 1024.9 0.0
01/08:00am 10.6 4.5 2.9 59 3.3 SSW 24 32 13 17 1024.5 1024.4 0.0
01/07:30am 9.4 4.2 3.6 67 2.5 SW 20 24 11 13 1024.1 1024.0 0.0
01/07:00am 7.5 2.9 3.6 76 1.7 WSW 17 20 9 11 1023.9 1023.8 0.0
01/06:30am 5.7 1.7 2.7 81 1.2 W 13 15 7 8 1023.5 1023.4 0.0
01/06:00am 4.8 1.0 1.8 81 1.2 W 11 13 6 7 1023.0 1022.9 0.0
01/05:30am 4.9 1.1 1.7 80 1.3 W 11 13 6 7 1022.4 1022.4 0.0
01/05:00am 5.5 2.1 1.8 77 1.5 WSW 9 11 5 6 1021.9 1021.9 0.0
01/04:30am 6.0 2.5 1.5 73 1.8 WSW 9 11 5 6 1021.5 1021.5 0.0
01/04:00am 7.1 3.0 2.0 70 2.1 WSW 13 17 7 9 1021.1 1021.1 0.0
01/03:30am 8.1 2.8 2.1 66 2.5 SW 19 24 10 13 1020.7 1020.7 0.0
01/03:00am 8.7 3.4 2.1 63 2.8 SW 19 24 10 13 1020.4 1020.4 0.0
01/02:30am 9.6 3.4 2.2 60 3.1 SW 24 33 13 18 1020.0 1020.0 0.0
01/02:00am 10.2 3.9 1.8 56 3.5 SW 24 32 13 17 1019.6 1019.6 0.0
01/01:30am 10.6 4.7 1.7 54 3.8 SW 22 28 12 15 1019.5 1019.5 0.0
01/01:00am 11.3 4.7 1.8 52 4.0 SW 26 37 14 20 1019.4 1019.4 0.0
01/12:30am 11.9 4.5 1.8 50 4.3 SW 30 39 16 21 1019.1 1019.1 0.0
01/12:00am 12.4 4.6 1.4 47 4.7 SW 32 39 17 21 1018.6 1018.6 0.0
 
Date/Time
EST
Temp
°C
App
Temp
°C
Dew
Point
Rel
Hum
%
Delta-T
°C
Wind Press
QNH
hPa
Press
MSL
hPa
Rain
since 9 am
mm
Dir
 
Spd
km/h
Gust
km/h
Spd
kts
Gust
kts
30/11:30pm 13.0 5.1 1.0 44 5.1 SW 32 44 17 24 1018.1 1018.1 0.0
30/11:00pm 13.7 5.2 0.7 41 5.5 SW 35 52 19 28 1017.6 1017.6 0.0
30/10:36pm 14.2 5.0 1.2 41 5.6 SW 39 57 21 31 1017.4 1017.4 0.0
30/10:30pm 14.2 5.5 1.8 43 5.4 SW 37 50 20 27 1017.3 1017.3 0.0
30/10:00pm 14.3 6.2 3.5 48 4.9 SW 35 48 19 26 1016.9 1016.9 0.0
30/09:30pm 14.5 7.1 4.2 50 4.8 WSW 32 46 17 25 1016.6 1016.6 0.0
30/09:00pm 15.0 6.5 5.2 52 4.6 WSW 39 54 21 29 1015.9 1015.8 0.0
30/08:30pm 15.2 7.8 6.7 57 4.2 SW 35 48 19 26 1015.4 1015.3 0.0
30/08:00pm 16.1 6.7 7.3 56 4.4 SW 46 65 25 35 1014.7 1014.6 0.0
30/07:45pm 16.5 7.6 7.7 56 4.4 SW 44 63 24 34 1014.3 1014.2 0.0
30/07:30pm 17.5 8.4 8.4 55 4.7 SW 46 61 25 33 1013.5 1013.4 0.0
30/07:00pm 19.8 10.0 6.9 43 6.6 SW 48 69 26 37 1012.2 1012.1 0.0
30/06:47pm 22.7 13.3 4.2 30 9.1 WSW 43 63 23 34 1011.3 1011.2 0.0
30/06:30pm 24.7 14.7 2.2 23 10.8 W 44 57 24 31 1010.5 1010.5 0.0
30/06:06pm 25.8 17.3 3.1 23 11.2 W 37 56 20 30 1009.9 1009.9 0.0
30/06:00pm 25.8 16.8 2.5 22 11.4 W 39 54 21 29 1009.8 1009.8 0.0
30/05:35pm 26.7 16.2 1.2 19 12.2 WNW 46 65 25 35 1009.4 1009.4 0.0
30/05:30pm 26.7 16.2 1.2 19 12.2 WNW 46 59 25 32 1009.4 1009.4 0.0
30/05:03pm 27.2 17.3 1.6 19 12.4 WNW 43 61 23 33 1009.5 1009.5 0.0
30/05:00pm 26.9 16.3 0.6 18 12.5 WNW 46 61 25 33 1009.4 1009.4 0.0
30/04:43pm 27.5 17.4 0.3 17 12.9 WNW 43 61 23 33 1009.4 1009.4 0.0
30/04:30pm 28.0 18.0 0.7 17 13.1 WNW 43 54 23 29 1009.4 1009.4 0.0
30/04:01pm 28.4 18.2 1.0 17 13.2 W 44 63 24 34 1009.4 1009.4 0.0
30/04:00pm 28.1 17.5 0.8 17 13.1 W 46 63 25 34 1009.3 1009.3 0.0
30/03:36pm 28.5 18.5 1.1 17 13.2 W 43 61 23 33 1009.5 1009.5 0.0
30/03:30pm 28.2 17.5 0.0 16 13.3 W 46 61 25 33 1009.6 1009.6 0.0
30/03:00pm 29.1 18.7 -0.1 15 13.9 WNW 44 65 24 35 1009.8 1009.8 0.0
30/02:33pm 28.4 18.3 0.2 16 13.4 WNW 43 65 23 35 1009.8 1009.8 0.0
30/02:30pm 28.8 18.5 0.5 16 13.6 WNW 44 57 24 31 1009.9 1009.9 0.0
30/02:04pm 28.8 19.5 0.5 16 13.6 WNW 39 57 21 31 1010.2 1010.2 0.0
30/02:00pm 28.4 19.0 0.2 16 13.4 WNW 39 56 21 30 1010.4 1010.4 0.0
30/01:55pm 28.7 20.1 0.4 16 13.5 WNW 35 56 19 30 1010.3 1010.3 0.0
30/01:30pm 28.3 17.7 0.9 17 13.2 WNW 46 61 25 33 1010.9 1010.9 0.0
30/01:00pm 27.7 17.7 1.2 18 12.8 NW 43 65 23 35 1011.1 1011.1 0.0
30/12:36pm 27.8 20.2 2.8 20 12.4 NW 32 50 17 27 1011.5 1011.4 0.0
30/12:30pm 27.0 19.1 2.1 20 12.1 WNW 33 50 18 27 1011.7 1011.6 0.0
30/12:28pm 27.5 19.9 2.6 20 12.3 WNW 32 50 17 27 1011.6 1011.5 0.0
30/12:00pm 26.6 18.4 2.5 21 11.8 WNW 35 48 19 26 1012.4 1012.3 0.0
30/11:50am 26.8 19.2 2.7 21 11.9 WNW 32 50 17 27 1012.6 1012.5 0.0
30/11:30am 25.9 17.7 2.6 22 11.4 WNW 35 48 19 26 1013.0 1012.9 0.0
30/11:20am 25.9 18.7 3.2 23 11.2 WNW 30 52 16 28 1013.1 1013.0 0.0
30/11:00am 24.5 17.9 4.3 27 10.1 WNW 28 37 15 20 1013.4 1013.3 0.0
30/10:30am 24.1 19.6 5.9 31 9.3 WNW 19 32 10 17 1013.9 1013.8 0.0
30/10:00am 23.0 19.3 6.3 34 8.5 WNW 15 20 8 11 1014.3 1014.2 0.0
30/09:30am 21.6 18.1 7.1 39 7.5 W 15 20 8 11 1014.4 1014.3 0.0
30/09:00am 20.8 17.7 7.1 41 7.0 W 13 17 7 9 1014.5 1014.4 -
30/08:30am 20.1 17.8 7.5 44 6.5 WSW 9 13 5 7 1014.3 1014.2 -
30/08:00am 17.8 15.9 6.7 48 5.5 W 6 9 3 5 1014.0 1013.9 -
30/07:30am 15.7 13.5 6.2 53 4.6 W 7 9 4 5 1014.1 1014.0 -
30/07:00am 13.4 9.5 5.3 58 3.8 W 15 20 8 11 1014.1 1014.0 -
30/06:30am 10.9 7.4 3.7 61 3.2 WNW 11 13 6 7 1013.7 1013.6 -
30/06:00am 10.7 7.7 4.0 63 3.0 WNW 9 11 5 6 1013.4 1013.3 -
30/05:30am 11.7 8.0 4.2 60 3.4 WNW 13 15 7 8 1012.9 1012.8 -
30/05:00am 11.1 8.5 4.3 63 3.1 N 7 9 4 5 1012.3 1012.2 -
30/04:30am 11.8 8.8 4.1 59 3.5 N 9 9 5 5 1012.0 1011.9 -
30/04:00am 10.5 7.1 4.2 65 2.8 N 11 11 6 6 1012.0 1011.9 -
30/03:30am 9.4 6.1 2.7 63 2.9 N 9 13 5 7 1012.1 1012.0 -
30/03:00am 9.7 6.5 2.8 62 3.0 NE 9 11 5 6 1012.2 1012.1 0.0
30/02:30am 9.7 6.9 3.4 65 2.7 NE 7 11 4 6 1012.4 1012.3 -
30/02:00am 10.2 7.2 4.1 66 2.7 NNE 9 9 5 5 1012.8 1012.7 -
30/01:30am 10.5 8.2 4.6 67 2.7 NNW 6 11 3 6 1013.3 1013.2 -
30/01:00am 11.2 8.3 2.8 56 3.7 N 7 9 4 5 1013.0 1012.9 -
30/12:30am 11.5 10.0 3.0 56 3.7 CALM 0 0 0 0 1013.1 1013.0 -
30/12:00am 11.9 9.6 2.6 53 4.1 E 4 9 2 5 1013.3 1013.2 -
 
Date/Time
EST
Temp
°C
App
Temp
°C
Dew
Point
Rel
Hum
%
Delta-T
°C
Wind Press
QNH
hPa
Press
MSL
hPa
Rain
since 9 am
mm
Dir
 
Spd
km/h
Gust
km/h
Spd
kts
Gust
kts
29/11:30pm 13.5 10.1 3.8 52 4.4 ENE 11 13 6 7 1013.4 1013.3 -
29/11:00pm 12.6 9.4 3.0 52 4.3 E 9 11 5 6 1013.6 1013.5 -
29/10:30pm 13.1 11.5 2.6 49 4.6 CALM 0 0 0 0 1013.8 1013.7 -
29/10:00pm 13.0 11.3 2.0 47 4.8 CALM 0 0 0 0 1013.9 1013.8 -
29/09:30pm 15.0 13.5 3.2 45 5.4 CALM 0 0 0 0 1014.1 1014.0 -
29/09:00pm 14.9 - 3.4 46 5.2 - - - - - 1014.0 1013.9 -
29/08:30pm 15.5 14.1 3.6 45 5.5 CALM 0 0 0 0 1013.9 1013.8 0.0
29/08:00pm 15.9 14.4 3.0 42 5.9 CALM 0 0 0 0 1013.8 1013.7 0.0
29/07:30pm 18.0 16.5 3.1 37 6.9 CALM 0 0 0 0 1013.7 1013.6 0.0
29/07:00pm 19.5 18.0 2.8 33 7.8 CALM 0 0 0 0 1013.4 1013.3 0.0
29/06:30pm 22.5 21.1 3.6 29 9.2 CALM 0 0 0 0 1013.1 1013.0 0.0

Other Formats:

Comma delimited format used in spreadsheet applications
http://www.bom.gov.au/fwo/IDN60801/IDN60801.94702.axf

JavaScript Object Notation format (JSON) in row-major order
http://www.bom.gov.au/fwo/IDN60801/IDN60801.94702.json